Weather observations for the past three days for
Elbow Lake Municipal Airport
Metric (Imperial)
Date Time (cdt) Wind (kph) Vis. (km) Weather Sky Cond. Temperature (ºC) Relative Humidity Wind Chill (°C) Heat Index (°C) Pressure Precipitation (cm)
Air Dwpt 6 hour altimeter (cm) sea level (mb) 1 hr 3 hr 6 hr
Max. Min.
05 10:35 E 20 16.09 Mostly Cloudy BKN009 22.6 19 80% 76.28 0.0
05 10:15 E 20 G 28 16.09 Overcast OVC009 22.2 18.7 81% 76.28 0.0
05 09:55 SE 20 16.09 Overcast OVC011 21.1 18.1 83% 76.28 0.0
05 09:35 E 22 G 30 16.09 Overcast OVC011 20.8 18.4 86% 76.3 0.0
05 09:15 E 22 16.09 Overcast OVC013 20 18.1 89% 76.3 0.0
05 08:55 E 24 16.09 Overcast OVC013 19.5 18.1 92% 76.28 0.0
05 08:35 E 24 16.09 Overcast SCT005 OVC015 19.2 18.3 95% 76.28 0.0
05 08:15 E 15 16.09 Overcast OVC003 18.8 18 95% 76.25 0.0
05 07:55 E 22 16.09 Overcast OVC003 18.6 17.7 95% 76.25 0.0
05 07:35 SE 13 16.09 Overcast OVC003 18.6 17.6 94% 76.25 0.0
05 07:15 E 13 11.27 Overcast OVC003 18.5 17.5 94% 76.2 0.0
05 06:55 E 15 11.27 Overcast OVC003 18.5 17.5 20.5 18.1 94% 76.2 0.0
05 06:35 E 15 11.27 Overcast OVC003 18.5 17.5 94% 76.2 0.0
05 06:15 E 17 16.09 Overcast OVC003 18.3 17.5 95% 76.2 0.0
05 05:55 E 15 16.09 Mostly Cloudy BKN005 18.2 17.3 95% 76.2 0.0
05 05:35 SE 9 16.09 Partly Cloudy SCT005 18.2 17.3 95% 76.2 0.0
05 05:15 SE 13 16.09 Fair CLR 18.6 17.6 94% 76.17 0.0
05 04:55 E 15 16.09 Fair CLR 18.6 17.7 95% 76.17 0.0
05 04:35 SE 11 16.09 Fair CLR 18.7 17.9 95% 76.17 0.0
05 04:15 E 11 16.09 Fair CLR 18.8 17.9 95% 76.12 0.0
05 03:55 E 17 16.09 Partly Cloudy SCT004 19 18 94% 76.12 0.0
05 03:35 E 15 16.09 Overcast OVC004 19.2 18.3 95% 76.12 0.0
05 03:15 E 22 G 33 16.09 Overcast OVC004 19.5 18.5 94% 76.12 0.0
05 02:55 E 19 G 33 16.09 Overcast OVC004 19.6 18.6 94% 76.15 0.0
05 02:35 E 19 16.09 Mostly Cloudy BKN004 19.3 18.5 95% 76.17 0.0
05 02:15 E 17 16.09 Fair CLR 19.5 18.6 95% 76.17 0.0
05 01:55 E 19 16.09 Fair CLR 19.8 18.9 95% 76.17 0.0
05 01:35 SE 15 16.09 Fair CLR 20 19 94% 76.2 0.0
05 01:15 E 17 16.09 Fair CLR 20.1 19.2 95% 76.2 0.0
05 00:55 E 17 16.09 Fair CLR 20.5 19.5 27.8 20.5 94% 76.2 0.0
05 00:35 E 17 16.09 Fair CLR 20.9 19.7 93% 76.2 0.0
05 00:15 E 22 16.09 Fair CLR 21.2 19.9 92% 76.2 0.0
04 23:55 E 15 16.09 Fair CLR 21.5 20 91% 76.2 0.0
04 23:35 E 15 16.09 Fair CLR 21.7 20.2 91% 76.17 0.0
04 23:15 E 13 16.09 Fair CLR 22.1 20.4 90% 76.17 0.0
04 22:55 E 19 16.09 Fair CLR 22.5 20.2 87% 76.17 0.0
04 22:35 E 13 16.09 Fair CLR 23 20 83% 76.17 0.0
04 22:15 E 13 16.09 Fair CLR 23.3 20 82% 76.17 0.0
04 21:55 E 13 16.09 Fair CLR 23.8 19.9 79% 76.17 0.0
04 21:35 E 11 16.09 Fair CLR 24.1 19.8 77% 25 76.15 0.0
04 21:15 E 9 16.09 Fair CLR 24.5 19.7 75% 25 76.15 0.0
04 20:55 E 11 16.09 Fair CLR 24.8 19.6 73% 26 76.1 0.0
04 20:35 E 7 16.09 Fair CLR 25.2 19.8 72% 26 76.1 0.0
04 20:15 E 15 16.09 Fair CLR 25.9 19.7 69% 27 76.05 0.0
04 19:55 E 15 16.09 Fair CLR 26.6 19.8 66% 28 76.02 0.0
04 19:35 E 15 16.09 Fair CLR 27.2 19.5 63% 29 76.05 0.0
04 19:15 E 13 16.09 Fair CLR 27.5 19.4 61% 29 76.05 0.0
04 18:55 E 13 16.09 Fair CLR 27.8 19.6 30.1 26 61% 29 76.05 0.0
04 18:35 E 11 16.09 Fair CLR 28 19.7 61% 30 76.07 0.0
04 18:15 SE 11 16.09 Fair CLR 28.6 19.3 57% 30 76.07 0.0
04 17:55 E 13 16.09 Fair CLR 29.7 19.5 54% 31 76.05 0.0
04 17:35 E 9 16.09 Fair CLR 30 19.7 54% 32 76.02 0.0
04 17:15 NE 13 16.09 Fair CLR 29.8 19.5 54% 31 76.02 0.0
04 16:55 E 9 16.09 Fair CLR 30 19.7 54% 32 76.02 0.0
04 16:35 E 6 16.09 Fair CLR 29.9 19.1 52% 31 76.05 0.0
04 16:15 E 7 16.09 Fair CLR 30 19 52% 31 76.05 0.0
04 15:55 E 7 16.09 Fair CLR 29.7 18.9 52% 31 76.07 0.0
04 15:35 E 6 16.09 Fair CLR 29.5 19.4 55% 31 76.05 0.0
04 15:15 E 13 16.09 Fair CLR 29.2 19.6 56% 31 76.07 0.0
04 14:55 E 17 16.09 Fair CLR 28.6 19.5 58% 30 76.07 0.0
04 14:35 E 13 16.09 Fair CLR 28.6 19.7 59% 30 76.05 0.0
04 14:15 E 15 16.09 Fair CLR 28.1 20 61% 30 76.07 0.0
04 13:55 NE 7 16.09 Fair CLR 27.5 20.1 64% 29 76.07 0.0
04 13:35 E 7 16.09 Fair CLR 27.1 20 65% 29 76.07 0.0
04 13:15 E 11 16.09 Fair CLR 26.7 20.8 70% 28 76.07 0.0
04 12:35 NE 13 16.09 Partly Cloudy SCT012 24.8 20.6 78% 26 76.1 0.0
04 12:15 NE 13 16.09 Overcast OVC010 23.9 20.3 80% 24 76.1 0.0
04 11:55 E 11 16.09 Overcast OVC008 22.7 20.1 85% 76.1 0.0
04 11:35 E 9 16.09 Overcast OVC008 22.2 20.1 88% 76.07 0.0
04 11:15 NE 11 16.09 Overcast OVC006 21.1 20.1 94% 76.07 0.0
04 10:55 NE 9 16.09 Overcast OVC004 20.1 19.2 95% 76.07 0.0
04 10:35 NE 15 11.27 Overcast OVC002 20 19 94% 76.05 0.0
04 10:15 NE 9 11.27 Overcast OVC002 19.7 18.8 95% 76.05 0.0
04 09:55 N 15 1.61 Fog/Mist OVC002 19.5 18.5 94% 76.02 0.0
04 09:35 N 7 0.40 Fog OVC002 19.5 18.5 94% 76.02 0.0
04 09:15 N 9 0.40 Fog OVC002 19.3 18.4 95% 76 0.0
04 08:55 N 11 0.40 Fog OVC002 19 18.1 95% 76 0.0
04 08:35 N 7 0.24 Fog OVC002 18.7 17.8 95% 76 0.0
04 08:15 N 7 0.24 Fog OVC002 19.1 18.1 94% 75.97 0.0
04 07:55 NE 9 0.24 Fog OVC002 18.8 18 95% 75.97 0.0
04 07:35 NE 7 0.24 Fog OVC002 19 18 94% 75.95 0.0
04 07:15 NE 11 0.24 Fog OVC002 18.8 18 95% 75.92 0.0
04 06:55 NE 9 0.40 Fog OVC002 18.6 17.7 24.5 18.5 95% 75.9 0.0
04 06:35 E 6 0.40 Fog OVC002 18.5 17.6 95% 75.9 0.0
04 06:15 Calm 0.40 Fog OVC002 18.6 17.7 95% 75.9 0.0
04 05:55 E 11 0.80 Fog OVC002 18.6 17.7 95% 75.84 0.0
04 05:35 E 9 2.82 Fog/Mist OVC002 18.6 17.7 95% 75.84 0.0
04 05:15 E 13 16.09 Partly Cloudy SCT004 18.8 17.9 95% 75.84 0.0
04 04:55 E 11 16.09 Fair CLR 19 18 94% 75.82 0.0
04 04:35 E 9 16.09 Fair CLR 19.1 18.2 95% 75.82 0.0
04 04:15 E 11 16.09 Fair CLR 19.5 18.5 94% 75.79 0.0
04 03:55 E 11 16.09 Fair CLR 20 18.9 93% 75.79 0.0
04 03:35 E 11 16.09 Fair CLR 20.7 19.7 94% 75.77 0.0
04 03:15 E 13 16.09 Fair CLR 21.1 20.1 94% 75.77 0.0
04 02:55 NE 11 16.09 Fair CLR 21.5 20.6 95% 75.72 0.0
04 02:35 NE 6 16.09 Fair CLR 22.6 21.6 94% 75.72 0.0
04 02:15 NE 7 16.09 Fair CLR 23 21.9 94% 75.72 0.0
04 01:55 Calm 16.09 Fair CLR 24 22.5 91% 23 75.72 0.0
04 01:35 E 9 16.09 Fair CLR 24.3 22.6 90% 24 75.67 0.0
04 01:15 E 7 16.09 Fair CLR 24.3 22.5 90% 24 75.67 0.0
04 00:55 E 7 16.09 Fair CLR 24.3 22.5 30.6 24.1 90% 24 75.67 0.0
04 00:35 E 7 16.09 Fair CLR 24.2 22.3 89% 24 75.64 0.0
04 00:15 E 9 16.09 Fair CLR 24.7 21.7 83% 25 75.62 0.0
03 23:35 SE 11 11.27 Fair CLR 25.1 21.5 81% 26 75.59 0.0
03 23:15 SE 9 16.09 Fair CLR 25.7 21.5 78% 27 75.59 0.0
03 22:55 E 13 16.09 Fair CLR 26.1 21.5 76% 28 75.59 0.0
03 22:35 SE 15 16.09 Fair CLR 26.9 21 70% 29 75.59 0.0
03 22:15 E 13 16.09 Fair CLR 27.1 21.2 70% 29 75.59 0.0
03 21:55 E 11 16.09 Fair CLR 27.5 21.1 68% 30 75.59 0.0
03 21:35 E 13 16.09 Fair CLR 27.8 21 67% 30 75.57 0.0
03 21:15 E 17 16.09 Fair CLR 28.3 21.1 65% 31 75.57 0.0
03 20:55 E 17 16.09 Fair CLR 28.3 21.1 65% 31 75.57 0.0
03 20:35 NE 13 16.09 Fair CLR 27.3 21.7 72% 30 75.57 0.0
03 20:15 E 7 16.09 Partly Cloudy SCT090 28.3 22 69% 31 75.54 0.0
03 19:55 E 13 16.09 Partly Cloudy SCT090 28.8 22 67% 32 75.51 0.0
03 19:35 SE 9 16.09 Thunderstorm in Vicinity CLR 29.5 21.4 62% 32 75.51 0.0
03 19:15 E 9 16.09 Fair CLR 29.9 21.6 61% 33 75.51 0.0
03 18:55 E 9 16.09 Fair CLR 30.9 21.3 33 30.3 57% 34 75.51 0.0
03 18:35 SE 13 16.09 Fair CLR 31.6 20.6 52% 34 75.49 0.0
03 18:15 SE 15 16.09 Fair CLR 32 20.6 51% 35 75.49 0.0
03 17:55 SE 15 16.09 Fair CLR 32.2 20.6 50% 35 75.49 0.0
03 17:35 SE 19 16.09 Fair CLR 32.5 20.2 48% 35 75.46 0.0
03 17:15 S 24 16.09 Fair CLR 32.5 19.8 47% 35 75.46 0.0
03 16:55 S 24 16.09 Fair CLR 32.6 19.8 47% 35 75.49 0.0
03 16:15 SE 20 G 26 16.09 Fair CLR 32.7 19.7 46% 35 75.49 0.0
03 15:55 SE 20 G 26 16.09 Fair CLR 32.9 19.5 45% 35 75.46 0.0
03 15:35 SE 15 16.09 Fair CLR 32.7 19.2 45% 34 75.46 0.0
03 15:15 SE 19 16.09 Fair CLR 32.8 19.3 45% 35 75.49 0.0
03 14:55 S 19 G 30 16.09 Fair CLR 32.5 19.3 46% 34 75.49 0.0
03 14:35 SE 22 G 31 16.09 Fair CLR 32.4 19.3 46% 34 75.46 0.0
03 14:15 SE 20 G 31 16.09 Fair CLR 31.7 19.5 48% 33 75.46 0.0
03 13:55 SE 24 G 31 16.09 Fair CLR 31.2 19.2 49% 33 75.49 0.0
03 13:35 SE 24 16.09 Fair CLR 30.9 19.2 50% 32 75.54 0.0
03 13:15 SE 26 16.09 Fair CLR 30.7 19 50% 32 75.54 0.0
03 12:55 S 26 G 33 16.09 Fair CLR 30.6 19.2 30.6 20.4 51% 32 75.57 0.0
03 12:35 SE 24 16.09 Fair CLR 30 19.1 52% 31 75.57 0.0
03 12:15 SE 20 16.09 Fair CLR 29.2 18.6 53% 30 75.59 0.0
03 11:55 SE 17 16.09 Fair CLR 28 18.5 56% 29 75.62 0.0
03 11:35 S 20 16.09 Fair CLR 27.9 18.9 58% 29 75.62 0.0
03 11:15 SE 19 G 30 16.09 Fair CLR 27.6 18.6 58% 29 75.62 0.0
03 10:55 SE 19 G 28 16.09 Fair CLR 27.5 19.1 60% 29 75.62 0.0
03 10:35 SE 17 16.09 Fair CLR 25.5 18.6 66% 27 75.62 0.0
03 10:15 SE 22 G 30 16.09 Fair CLR 25.3 18.5 66% 26 75.62 0.0
03 09:55 SE 20 G 28 16.09 Fair CLR 25.4 18.8 67% 26 75.62 0.0
03 09:35 E 17 G 33 16.09 Fair CLR 24.5 18.6 70% 25 75.62 0.0
03 09:15 SE 24 16.09 Fair CLR 23.5 18 71% 75.64 0.0
03 08:55 E 22 G 30 16.09 Fair CLR 22.8 17.5 72% 75.64 0.0
03 08:35 E 19 G 31 16.09 Fair CLR 22.1 17.1 73% 75.64 0.0
03 08:15 E 20 16.09 Fair CLR 21.6 17 75% 75.67 0.0
03 07:55 E 20 G 28 16.09 Fair CLR 21 16.3 75% 75.67 0.0
03 07:35 E 20 16.09 Fair CLR 20.7 16.4 77% 75.67 0.0
03 07:15 E 20 16.09 Fair CLR 20.5 16 76% 75.69 0.0
03 06:55 E 22 16.09 Fair CLR 20.5 15.8 22.3 20.3 75% 75.69 0.0
03 06:35 E 19 16.09 Fair CLR 20.5 15.6 74% 75.72 0.0
03 06:15 E 17 16.09 Fair CLR 20.3 15.5 74% 75.72 0.0
03 05:55 E 17 16.09 Fair CLR 20.5 15.6 74% 75.74 0.0
03 05:35 E 17 16.09 Fair CLR 20.6 15.3 72% 75.72 0.0
03 05:15 E 15 G 28 16.09 Fair CLR 20.7 15.2 71% 75.72 0.0
03 04:55 E 17 G 28 16.09 Fair CLR 20.8 15 70% 75.72 0.0
03 04:35 E 17 16.09 Fair CLR 21 14.7 67% 75.74 0.0
03 04:15 E 15 16.09 Fair CLR 21 14.6 67% 75.74 0.0
03 03:55 E 17 16.09 Fair CLR 21 14.4 66% 75.74 0.0
03 03:35 E 17 16.09 Fair CLR 21.2 14.7 67% 75.74 0.0
03 03:15 E 20 16.09 Fair CLR 21.3 14.7 66% 75.74 0.0
03 02:55 E 15 16.09 Fair CLR 21.5 15 67% 75.77 0.0
03 02:35 E 15 16.09 Fair CLR 21.5 15.2 67% 75.79 0.0
03 02:15 E 17 16.09 Fair CLR 21.8 15.4 67% 75.79 0.0
03 01:55 E 19 16.09 Fair CLR 22 15 65% 75.82 0.0
03 01:35 E 20 16.09 Fair CLR 22.1 15.1 65% 75.82 0.0
03 01:15 E 20 16.09 Fair CLR 22.2 15.2 65% 75.82 0.0
03 00:55 E 20 G 31 16.09 Fair CLR 22.3 15.1 28.3 22.3 64% 75.82 0.0
03 00:35 E 20 16.09 Fair CLR 22.6 15.1 63% 75.82 0.0
03 00:15 E 15 16.09 Fair CLR 22.6 15.1 63% 75.84 0.0
02 23:55 E 13 16.09 Fair CLR 22.8 15 62% 75.84 0.0
02 23:35 E 13 16.09 Partly Cloudy SCT065 23 15 61% 75.87 0.0
02 23:15 E 13 16.09 Partly Cloudy SCT065 23.3 14.8 59% 75.87 0.0
02 22:55 E 13 16.09 Partly Cloudy SCT065 23.5 14.6 58% 75.87 0.0
02 22:35 E 15 16.09 Mostly Cloudy BKN065 23.7 14.5 56% 75.87 0.0
02 22:15 E 15 16.09 Mostly Cloudy BKN065 24 14.4 55% 25 75.9 0.0
02 21:55 E 15 16.09 Mostly Cloudy BKN065 24.2 14.6 55% 25 75.87 0.0
02 21:35 E 15 16.09 Mostly Cloudy BKN065 24.2 14.9 56% 25 75.87 0.0
02 21:15 E 13 16.09 Partly Cloudy SCT075 24.6 15.5 57% 26 75.9 0.0
02 20:55 E 13 16.09 Mostly Cloudy BKN075 25 15.5 56% 26 75.87 0.0
02 20:35 E 9 16.09 Mostly Cloudy BKN075 26.1 14.3 48% 27 75.87 0.0
02 20:15 E 11 16.09 Mostly Cloudy BKN075 26.5 14 46% 27 75.84 0.0
02 19:55 E 9 16.09 Overcast OVC075 26.9 14.4 46% 27 75.84 0.0
02 19:35 E 11 16.09 Mostly Cloudy BKN075 27.2 14.6 46% 27 75.84 0.0
02 19:15 E 9 16.09 Mostly Cloudy SCT075 BKN095 27.6 14.6 45% 28 75.84 0.0
02 18:55 E 11 16.09 Mostly Cloudy BKN075 BKN095 28.3 14.1 29.6 27.8 42% 28 75.84 0.0
02 18:35 E 9 16.09 Partly Cloudy SCT080 28.2 14.1 42% 28 75.84 0.0
02 18:15 E 11 16.09 Fair CLR 28.8 14.4 41% 29 75.84 0.0
02 17:55 E 11 16.09 Partly Cloudy SCT080 SCT090 29 14.8 42% 29 75.84 0.0
02 17:35 E 11 16.09 Overcast OVC080 29.3 14.2 40% 29 75.84 0.0
02 17:15 SE 7 16.09 Partly Cloudy SCT080 28.7 14.2 41% 28 75.84 0.0
02 16:55 SE 11 16.09 Fair CLR 29.3 14 39% 29 75.87 0.0
02 16:35 E 9 16.09 Fair CLR 29.3 13.6 38% 29 75.87 0.0
02 16:15 E 7 16.09 Fair CLR 29.2 13.1 37% 29 75.9 0.0
02 15:55 Calm 16.09 Fair CLR 29.2 12.2 35% 28 75.9 0.0
02 15:35 E 9 16.09 Fair CLR 29.5 12.8 36% 29 75.92 0.0
02 15:15 E 7 16.09 Fair CLR 29.5 12.7 36% 29 75.92 0.0
02 14:55 NE 9 16.09 Fair CLR 29.2 12.6 36% 28 75.95 0.0
02 14:35 N 7 16.09 Fair CLR 28.9 12.5 36% 28 75.95 0.0
02 14:15 E 6 16.09 Partly Cloudy SCT090 28.6 12 36% 28 75.95 0.0
02 13:55 NE 9 16.09 Partly Cloudy SCT090 28.4 12.7 38% 28 75.97 0.0
02 13:35 Calm 16.09 Fair CLR 27.9 12.1 38% 27 76 0.0
02 13:15 SE 6 16.09 Fair CLR 28.2 11.8 36% 28 76 0.0
02 12:55 NE 7 16.09 Fair CLR 28 12.3 28 19 38% 28 76 0.0
02 12:35 NE 7 16.09 Fair CLR 27.5 11 36% 27 76 0.0
02 12:15 N 7 16.09 Fair CLR 27.6 12.2 38% 27 76.02 0.0
02 11:55 E 9 16.09 Fair CLR 27.2 10.1 34% 27 76.02 0.0
02 11:35 E 9 16.09 Fair CLR 27.1 13.8 44% 27 76 0.0
02 11:15 E 9 16.09 Fair CLR 26.2 14.1 47% 27 76 0.0
02 10:55 E 9 16.09 Fair CLR 26 15.2 51% 27 76.02 0.0
Date Time (cdt) Wind (kph) Vis. (km) Weather Sky Cond. Air Dwpt Max. Min. Relative Humidity Wind Chill (°C) Heat Index (°C) altimeter (cm) sea level (mb) 1 hr 3 hr 6 hr
6 hour
Temperature (ºC) Pressure Precipitation (cm)